createdAt,value
2019-03-23T00:00:52.456Z,19.69
2019-03-23T00:03:20.187Z,19.68
2019-03-23T00:05:47.959Z,19.68
2019-03-23T00:08:15.795Z,19.68
2019-03-23T00:10:43.542Z,19.67
2019-03-23T00:13:11.345Z,19.68
2019-03-23T00:15:39.054Z,19.68
2019-03-23T00:18:06.775Z,19.65
2019-03-23T00:25:58.716Z,19.59
2019-03-23T00:28:26.519Z,19.58
2019-03-23T00:39:14.310Z,19.53
2019-03-23T00:41:42.162Z,19.52
2019-03-23T00:44:10.097Z,19.51
2019-03-23T00:46:37.936Z,19.47
2019-03-23T00:49:05.739Z,19.45
2019-03-23T00:51:33.741Z,19.43
2019-03-23T00:54:01.583Z,19.41
2019-03-23T00:56:29.750Z,19.41
2019-03-23T00:58:57.636Z,19.40
2019-03-23T01:01:25.497Z,19.39
2019-03-23T01:03:53.284Z,19.37
2019-03-23T01:06:21.162Z,19.37
2019-03-23T01:08:48.943Z,19.36
2019-03-23T01:11:17.975Z,19.33
2019-03-23T01:13:45.795Z,19.35
2019-03-23T01:16:14.180Z,19.35
2019-03-23T01:18:42.005Z,19.32
2019-03-23T01:36:50.333Z,19.25
2019-03-23T01:39:18.582Z,19.24
2019-03-23T01:41:46.431Z,19.23
2019-03-23T01:44:14.325Z,19.22
2019-03-23T01:46:42.255Z,19.20
2019-03-23T01:49:10.239Z,19.20
2019-03-23T01:51:38.054Z,19.18
2019-03-23T01:54:05.894Z,19.21
2019-03-23T01:56:33.741Z,19.19
2019-03-23T01:59:01.599Z,19.19
2019-03-23T02:13:08.486Z,19.13
2019-03-23T02:15:36.341Z,19.13
2019-03-23T02:18:04.137Z,19.11
2019-03-23T02:20:32.011Z,19.11
2019-03-23T02:22:59.840Z,19.12
2019-03-23T02:25:27.834Z,19.11
2019-03-23T02:27:55.635Z,19.10
2019-03-23T02:30:25.547Z,19.10
2019-03-23T02:32:53.208Z,19.09
2019-03-23T02:35:21.096Z,19.08
2019-03-23T02:37:49.005Z,19.10
2019-03-23T02:40:16.941Z,19.08
2019-03-23T02:42:44.749Z,19.10
2019-03-23T02:45:12.619Z,19.08
2019-03-23T02:47:40.544Z,19.10
2019-03-23T02:50:08.582Z,19.08
2019-03-23T02:52:36.618Z,19.08
2019-03-23T02:55:05.390Z,19.06
2019-03-23T02:57:33.254Z,19.04
2019-03-23T03:41:49.899Z,19.00
2019-03-23T03:44:17.766Z,19.02
2019-03-23T03:46:45.620Z,19.00
2019-03-23T03:49:13.429Z,18.98
2019-03-23T04:22:05.080Z,18.93
2019-03-23T04:24:32.927Z,18.92
2019-03-23T04:27:03.626Z,18.93
2019-03-23T04:29:31.465Z,18.90
2019-03-23T04:31:59.282Z,18.90
2019-03-23T04:34:26.979Z,18.88
2019-03-23T04:36:54.727Z,18.88
2019-03-23T04:48:35.683Z,18.86
2019-03-23T04:51:03.514Z,18.85
2019-03-23T04:53:31.332Z,18.85
2019-03-23T04:55:59.168Z,18.80
2019-03-23T04:58:26.976Z,18.81
2019-03-23T05:29:16.420Z,18.84
2019-03-23T05:31:44.423Z,18.82
2019-03-23T05:34:12.409Z,18.81
2019-03-23T05:36:40.255Z,18.81
2019-03-23T05:39:09.812Z,18.78
2019-03-23T05:51:28.731Z,18.76
2019-03-23T05:53:56.607Z,18.74
2019-03-23T05:56:24.510Z,18.73
2019-03-23T05:58:52.331Z,18.74
2019-03-23T06:04:02.038Z,18.72
2019-03-23T06:06:29.897Z,18.74
2019-03-23T06:08:57.745Z,18.75
2019-03-23T06:16:49.723Z,18.74
2019-03-23T06:22:14.140Z,18.73
2019-03-23T06:24:42.016Z,18.70
2019-03-23T06:27:09.918Z,18.71
2019-03-23T06:36:04.672Z,18.72
2019-03-23T06:38:32.545Z,18.72
2019-03-23T06:46:56.712Z,18.74
2019-03-23T06:52:27.019Z,18.75
2019-03-23T06:54:54.963Z,18.77
2019-03-23T06:57:22.906Z,18.77
2019-03-23T07:06:11.689Z,18.81
2019-03-23T07:08:39.500Z,18.82
2019-03-23T07:11:07.355Z,18.81
2019-03-23T07:13:35.241Z,18.85
2019-03-23T07:16:03.153Z,18.84
2019-03-23T07:18:31.054Z,18.86
2019-03-23T07:20:59.009Z,18.88
2019-03-23T07:23:26.940Z,18.89
2019-03-23T07:25:54.836Z,18.90
2019-03-23T07:28:22.751Z,18.90
2019-03-23T07:30:50.619Z,18.91
2019-03-23T07:33:18.738Z,18.93
2019-03-23T07:35:46.732Z,18.92
2019-03-23T07:38:14.695Z,18.94
2019-03-23T07:40:42.549Z,18.96
2019-03-23T07:43:10.392Z,18.96
2019-03-23T07:45:38.351Z,18.97
2019-03-23T07:48:06.277Z,18.98
2019-03-23T07:50:34.291Z,19.01
2019-03-23T07:53:02.251Z,19.01
2019-03-23T07:55:30.087Z,19.03
2019-03-23T07:57:58.054Z,19.03
2019-03-23T08:00:26.058Z,19.03
2019-03-23T08:02:54.014Z,19.05
2019-03-23T08:05:22.014Z,19.04
2019-03-23T08:07:49.883Z,19.04
2019-03-23T08:10:27.456Z,19.04
2019-03-23T08:12:55.354Z,19.03
2019-03-23T08:15:23.314Z,19.01
2019-03-23T08:17:51.143Z,19.02
2019-03-23T08:20:19.059Z,19.04
2019-03-23T08:22:46.876Z,19.06
2019-03-23T08:25:14.866Z,19.10
2019-03-23T08:27:42.721Z,19.13
2019-03-23T08:30:10.639Z,19.09
2019-03-23T08:32:38.675Z,19.12
2019-03-23T08:35:06.632Z,19.11
2019-03-23T08:37:34.470Z,19.09
2019-03-23T08:40:02.793Z,19.11
2019-03-23T08:42:30.849Z,19.13
2019-03-23T08:44:58.692Z,19.12
2019-03-23T08:47:27.057Z,19.10
2019-03-23T08:49:54.963Z,19.11
2019-03-23T08:52:22.926Z,19.12
2019-03-23T08:54:50.767Z,19.11
2019-03-23T08:57:18.703Z,19.11
2019-03-23T08:59:46.562Z,19.12
2019-03-23T09:02:14.471Z,19.14
2019-03-23T09:04:42.340Z,19.13
2019-03-23T09:07:10.222Z,19.13
2019-03-23T09:09:38.184Z,19.11
2019-03-23T09:12:06.000Z,19.09
2019-03-23T09:14:33.950Z,19.08
2019-03-23T09:17:01.967Z,18.79
2019-03-23T09:19:29.851Z,19.08
2019-03-23T09:21:57.657Z,19.08
2019-03-23T09:24:25.461Z,19.09
2019-03-23T09:26:53.321Z,19.10
2019-03-23T09:29:21.459Z,19.06
2019-03-23T09:31:49.435Z,19.09
2019-03-23T09:34:17.477Z,19.09
2019-03-23T09:36:45.511Z,19.10
2019-03-23T09:39:13.447Z,19.12
2019-03-23T09:41:42.399Z,19.10
2019-03-23T09:44:10.439Z,19.10
2019-03-23T09:46:38.513Z,19.10
2019-03-23T09:49:06.531Z,19.12
2019-03-23T09:51:34.425Z,19.11
2019-03-23T09:54:02.281Z,19.13
2019-03-23T09:56:30.138Z,19.15
2019-03-23T09:58:58.078Z,19.18
2019-03-23T10:01:26.402Z,19.19
2019-03-23T10:03:54.340Z,19.20
2019-03-23T10:06:22.273Z,19.18
2019-03-23T10:08:50.049Z,19.18
2019-03-23T10:11:17.978Z,19.20
2019-03-23T10:13:45.809Z,19.22
2019-03-23T10:16:13.791Z,19.22
2019-03-23T10:18:42.647Z,19.24
2019-03-23T10:21:10.598Z,19.22
2019-03-23T10:23:38.527Z,19.19
2019-03-23T10:26:06.427Z,19.18
2019-03-23T10:28:34.287Z,19.18
2019-03-23T10:31:02.333Z,19.20
2019-03-23T10:33:30.447Z,19.22
2019-03-23T10:35:58.556Z,19.19
2019-03-23T10:38:26.740Z,19.22
2019-03-23T10:40:54.622Z,19.24
2019-03-23T10:43:22.599Z,19.27
2019-03-23T10:45:50.582Z,19.26
2019-03-23T10:48:18.505Z,19.25
2019-03-23T10:50:46.592Z,19.23
2019-03-23T10:53:22.803Z,19.17
2019-03-23T10:55:44.332Z,19.17
2019-03-23T10:58:12.358Z,19.23
2019-03-23T11:06:04.165Z,19.39
2019-03-23T11:08:32.021Z,19.34
2019-03-23T11:10:59.983Z,19.37
2019-03-23T11:13:27.841Z,19.46
2019-03-23T11:15:55.743Z,19.54
2019-03-23T11:18:23.584Z,19.60
2019-03-23T11:23:27.369Z,19.59
2019-03-23T11:25:55.172Z,19.57
2019-03-23T11:28:23.035Z,19.52
2019-03-23T11:30:50.884Z,19.53
2019-03-23T11:33:18.892Z,19.52
2019-03-23T11:35:46.750Z,19.50
2019-03-23T11:38:14.702Z,19.52
2019-03-23T11:40:52.202Z,19.56
2019-03-23T11:43:12.399Z,19.56
2019-03-23T11:45:40.211Z,19.55
2019-03-23T11:48:08.074Z,19.53
2019-03-23T11:50:35.943Z,19.52
2019-03-23T11:53:03.789Z,19.52
2019-03-23T11:55:31.657Z,19.55
2019-03-23T11:57:59.663Z,19.58
2019-03-23T12:00:27.714Z,19.57
2019-03-23T12:02:55.663Z,19.59
2019-03-23T12:05:23.501Z,19.62
2019-03-23T12:07:51.357Z,19.64
2019-03-23T12:10:19.245Z,19.67
2019-03-23T12:12:47.125Z,19.67
2019-03-23T12:15:15.244Z,19.68
2019-03-23T12:17:43.163Z,19.69
2019-03-23T12:20:10.980Z,19.70
2019-03-23T12:22:38.843Z,19.72
2019-03-23T12:25:06.722Z,19.73
2019-03-23T12:27:34.528Z,19.77
2019-03-23T12:39:00.871Z,20.07
2019-03-23T12:41:28.749Z,20.13
2019-03-23T12:43:56.610Z,20.13
2019-03-23T12:46:24.609Z,20.15
2019-03-23T12:48:52.434Z,20.23
2019-03-23T12:51:20.396Z,20.26
2019-03-23T12:53:48.202Z,20.27
2019-03-23T12:56:16.094Z,20.27
2019-03-23T12:58:43.939Z,20.28
2019-03-23T13:01:11.846Z,20.30
2019-03-23T13:03:39.545Z,20.33
2019-03-23T13:06:07.328Z,20.39
2019-03-23T13:08:35.062Z,20.39
2019-03-23T13:11:02.835Z,20.38
2019-03-23T13:13:30.583Z,20.35
2019-03-23T13:15:58.335Z,20.37
2019-03-23T13:18:27.314Z,20.36
2019-03-23T13:20:55.333Z,20.30
2019-03-23T13:23:23.093Z,20.24
2019-03-23T13:25:50.834Z,20.25
2019-03-23T13:28:18.648Z,20.28
2019-03-23T13:30:46.346Z,20.39
2019-03-23T13:33:14.248Z,20.40
2019-03-23T13:35:42.021Z,20.38
2019-03-23T13:38:09.710Z,20.42
2019-03-23T13:40:37.578Z,20.47
2019-03-23T13:43:05.295Z,20.49
2019-03-23T13:45:42.362Z,20.45
2019-03-23T13:48:02.750Z,20.43
2019-03-23T13:50:30.534Z,20.38
2019-03-23T13:52:58.250Z,20.45
2019-03-23T13:55:27.549Z,20.55
2019-03-23T13:57:55.323Z,20.62
2019-03-23T14:00:23.062Z,20.68
2019-03-23T14:02:50.857Z,20.74
2019-03-23T14:05:18.567Z,20.82
2019-03-23T14:07:46.348Z,20.94
2019-03-23T14:10:14.097Z,21.00
2019-03-23T14:12:41.840Z,21.01
2019-03-23T14:15:09.597Z,21.05
2019-03-23T14:17:37.325Z,21.17
2019-03-23T14:20:05.306Z,21.28
2019-03-23T14:22:33.041Z,21.47
2019-03-23T14:25:00.774Z,21.47
2019-03-23T14:27:28.528Z,21.55
2019-03-23T14:29:56.249Z,21.58
2019-03-23T14:32:24.109Z,21.60
2019-03-23T14:34:51.917Z,21.67
2019-03-23T14:37:19.657Z,21.63
2019-03-23T14:39:47.409Z,22.22
2019-03-23T14:42:15.155Z,22.54
2019-03-23T14:44:43.018Z,22.73
2019-03-23T14:47:10.770Z,22.55
2019-03-23T14:52:41.282Z,21.66
2019-03-23T14:55:09.291Z,21.51
2019-03-23T14:57:37.272Z,21.71
2019-03-23T15:00:07.122Z,22.20
2019-03-23T15:02:35.117Z,22.48
2019-03-23T15:05:02.947Z,22.50
2019-03-23T15:07:33.743Z,22.51
2019-03-23T15:10:01.589Z,22.17
2019-03-23T15:12:29.583Z,21.83
2019-03-23T15:14:57.468Z,21.88
2019-03-23T15:17:25.346Z,22.10
2019-03-23T15:19:53.214Z,22.52
2019-03-23T15:22:21.165Z,22.86
2019-03-23T15:24:49.082Z,23.02
2019-03-23T15:27:16.984Z,23.15
2019-03-23T15:32:27.443Z,23.34
2019-03-23T15:34:55.253Z,23.27
2019-03-23T15:37:23.134Z,22.90
2019-03-23T15:39:50.998Z,22.82
2019-03-23T15:42:24.681Z,23.10
2019-03-23T15:44:49.064Z,23.29
2019-03-23T15:47:16.926Z,23.44
2019-03-23T15:49:44.886Z,23.48
2019-03-23T15:52:12.828Z,23.40
2019-03-23T15:54:40.593Z,23.39
2019-03-23T15:57:08.411Z,23.44
2019-03-23T15:59:36.265Z,23.08
2019-03-23T16:02:04.087Z,22.75
2019-03-23T16:04:31.972Z,22.55
2019-03-23T16:06:59.933Z,22.42
2019-03-23T16:09:27.750Z,22.34
2019-03-23T16:11:55.566Z,22.28
2019-03-23T16:14:23.399Z,22.19
2019-03-23T16:16:51.264Z,22.11
2019-03-23T16:22:06.885Z,21.97
2019-03-23T16:24:34.821Z,21.92
2019-03-23T16:27:02.706Z,21.89
2019-03-23T16:29:30.591Z,21.96
2019-03-23T16:31:58.483Z,22.09
2019-03-23T16:34:26.294Z,22.09
2019-03-23T16:36:54.146Z,21.99
2019-03-23T16:43:01.966Z,21.70
2019-03-23T16:45:30.112Z,21.52
2019-03-23T16:47:58.011Z,21.41
2019-03-23T16:53:01.939Z,21.21
2019-03-23T16:55:29.724Z,21.10
2019-03-23T16:57:57.589Z,21.01
2019-03-23T17:04:08.202Z,20.82
2019-03-23T17:06:45.841Z,20.72
2019-03-23T17:09:05.923Z,20.65
2019-03-23T17:14:16.909Z,20.51
2019-03-23T17:16:44.697Z,20.44
2019-03-23T17:19:12.578Z,20.38
2019-03-23T17:21:40.581Z,20.33
2019-03-23T17:24:08.639Z,20.29
2019-03-23T17:26:39.303Z,20.22
2019-03-23T17:29:07.352Z,20.17
2019-03-23T17:31:35.280Z,20.11
2019-03-23T17:34:03.186Z,20.07
2019-03-23T17:36:31.026Z,20.03
2019-03-23T17:38:58.926Z,19.99
2019-03-23T17:44:03.063Z,19.90
2019-03-23T17:46:33.115Z,19.85
2019-03-23T17:49:00.923Z,19.81
2019-03-23T17:51:28.787Z,19.77
2019-03-23T17:53:58.785Z,19.73
2019-03-23T17:56:26.371Z,19.71
2019-03-23T17:58:54.343Z,19.71
2019-03-23T18:01:22.290Z,19.66
2019-03-23T18:03:50.111Z,19.63
2019-03-23T18:06:18.062Z,19.59
2019-03-23T18:08:45.893Z,19.57
2019-03-23T18:11:13.812Z,19.54
2019-03-23T18:13:41.634Z,19.52
2019-03-23T18:16:09.507Z,19.49
2019-03-23T18:18:37.365Z,19.48
2019-03-23T18:21:05.162Z,19.45
2019-03-23T18:23:33.181Z,19.41
2019-03-23T19:10:41.766Z,19.00
2019-03-23T19:13:09.590Z,18.98
2019-03-23T19:15:37.369Z,18.97
2019-03-23T19:18:05.420Z,18.93
2019-03-23T19:20:33.328Z,18.93
2019-03-23T19:23:01.320Z,18.92
2019-03-23T19:25:29.171Z,18.89
2019-03-23T19:27:57.276Z,18.89
2019-03-23T19:30:25.158Z,18.88
2019-03-23T19:32:52.965Z,18.88
2019-03-23T19:35:20.796Z,18.87
2019-03-23T19:37:48.779Z,18.86
2019-03-23T19:43:15.516Z,18.83
2019-03-23T19:45:43.474Z,18.82
2019-03-23T19:48:11.397Z,18.81
2019-03-23T20:12:25.465Z,18.77
2019-03-23T20:14:53.517Z,18.74
2019-03-23T20:17:21.581Z,18.70
2019-03-23T20:28:53.330Z,18.70
2019-03-23T20:45:31.661Z,18.64
2019-03-23T20:47:59.490Z,18.64
2019-03-23T21:04:52.466Z,18.56
2019-03-23T21:07:20.438Z,18.60
2019-03-23T21:09:48.347Z,18.60
2019-03-23T21:12:16.249Z,18.59
2019-03-23T21:14:44.286Z,18.57
2019-03-23T21:17:12.348Z,18.57
